Dublin, PA (18917)

10:04 AM EST on December 05, 2016 (GMT -0500)
Estates at Deep Run Creek | | Change Station

Elev 495 ft 40.39 °N, 75.19 °W | Updated 59 seconds ago

Overcast
Overcast
39.4 °F
Feels Like 39 °F
N
3.0
Wind Variable Wind from West
Gusts 4.0 mph

Today
High -- | Low -- °F
--% Chance of Precip.
Yesterday
High -- | Low -- °F
Precip. -- in
Pressure 30.03 in
Visibility 10.0 miles
Clouds Overcast 400 ft
Windchill 39 °F
Dew Point 38 °F
Humidity 96%
Rainfall 0.18 in
Snow Depth Not available.
7:08 AM 4:34 PM
Waxing Crescent, 32% visible
METAR KDYL 051454Z AUTO VRB04KT 10SM OVC004 06/04 A3001 RMK AO2 SLP167 60001 T00560044 53009
Pressure 30.03 in
Visibility 10.0 miles
Clouds Overcast 400 ft
Windchill 39 °F
Dew Point 38 °F
Humidity 96%
Rainfall 0.18 in
Snow Depth Not available.
7:08 AM 4:34 PM
Waxing Crescent, 32% visible
METAR KDYL 051454Z AUTO VRB04KT 10SM OVC004 06/04 A3001 RMK AO2 SLP167 60001 T00560044 53009

10-Day Weather Forecast

Almanac

Astronomy

Dec. 05, 2016 Rise Set
Actual Time
Civil Twilight
Nautical Twilight
Astronomical Twilight
Moon
Length of Visible Light
Length of Day
Tomorrow will be .
, % of the Moon is Illuminated

Today's Extremes

State Highs State Lows

Community

WunderPhotos

Upload Photos

1,955,787 photos uploaded!

WunderBlog® & News

Nearby

Air Quality

  Air Quality AQ Index Pollutant
Not available.

Snow Depth

Station Depth Elevation

Earthquake Activity

City Distance Mag. Time & Date
Minimum magnitude displayed is 2.5.

Coastal Water Temperatures

Place Temperature

Stations

Nearby Weather Stations

Station Location Temp. Windchill Dew Point Humidity Wind Precip. Elev Updated Type
                   

Watches & Warnings

There are currently no watches in effect.